sensor_id;sensor_type;location;lat;lon;timestamp;P1;durP1;ratioP1;P2;durP2;ratioP2
76617;SDS011;65509;42.816;74.648;2023-01-06T00:00:39;13.75;;;5.40;;
76617;SDS011;65509;42.816;74.648;2023-01-06T00:03:04;9.10;;;3.42;;
76617;SDS011;65509;42.816;74.648;2023-01-06T00:05:30;16.90;;;3.70;;
76617;SDS011;65509;42.816;74.648;2023-01-06T00:07:56;8.10;;;3.15;;
76617;SDS011;65509;42.816;74.648;2023-01-06T00:10:22;10.43;;;3.30;;
76617;SDS011;65509;42.816;74.648;2023-01-06T00:12:48;9.88;;;3.45;;
76617;SDS011;65509;42.816;74.648;2023-01-06T00:15:14;13.35;;;4.75;;
76617;SDS011;65509;42.816;74.648;2023-01-06T00:17:39;13.98;;;5.25;;
76617;SDS011;65509;42.816;74.648;2023-01-06T00:20:05;8.70;;;3.10;;
76617;SDS011;65509;42.816;74.648;2023-01-06T00:22:31;14.55;;;4.28;;
76617;SDS011;65509;42.816;74.648;2023-01-06T00:24:56;11.48;;;3.50;;
76617;SDS011;65509;42.816;74.648;2023-01-06T00:27:22;14.70;;;4.10;;
76617;SDS011;65509;42.816;74.648;2023-01-06T00:29:47;14.95;;;4.28;;
76617;SDS011;65509;42.816;74.648;2023-01-06T00:32:15;10.55;;;4.15;;
76617;SDS011;65509;42.816;74.648;2023-01-06T00:34:40;9.65;;;3.88;;
76617;SDS011;65509;42.816;74.648;2023-01-06T00:37:06;9.60;;;3.10;;
76617;SDS011;65509;42.816;74.648;2023-01-06T00:39:31;19.60;;;5.80;;
76617;SDS011;65509;42.816;74.648;2023-01-06T00:41:57;13.95;;;4.60;;
76617;SDS011;65509;42.816;74.648;2023-01-06T00:44:32;15.23;;;3.55;;
76617;SDS011;65509;42.816;74.648;2023-01-06T00:46:58;9.38;;;2.33;;
76617;SDS011;65509;42.816;74.648;2023-01-06T00:49:24;15.60;;;3.20;;
76617;SDS011;65509;42.816;74.648;2023-01-06T00:51:50;8.55;;;2.53;;
76617;SDS011;65509;42.816;74.648;2023-01-06T00:54:15;8.60;;;2.58;;
76617;SDS011;65509;42.816;74.648;2023-01-06T00:56:42;13.80;;;5.50;;
76617;SDS011;65509;42.816;74.648;2023-01-06T00:59:08;14.35;;;4.90;;
76617;SDS011;65509;42.816;74.648;2023-01-06T01:01:33;20.75;;;6.88;;
76617;SDS011;65509;42.816;74.648;2023-01-06T01:03:59;24.33;;;12.27;;
76617;SDS011;65509;42.816;74.648;2023-01-06T01:06:25;26.15;;;10.38;;
76617;SDS011;65509;42.816;74.648;2023-01-06T01:08:54;16.75;;;7.93;;
76617;SDS011;65509;42.816;74.648;2023-01-06T01:11:20;14.55;;;5.93;;
76617;SDS011;65509;42.816;74.648;2023-01-06T01:14:04;14.95;;;6.55;;
76617;SDS011;65509;42.816;74.648;2023-01-06T01:16:30;24.40;;;6.97;;
76617;SDS011;65509;42.816;74.648;2023-01-06T01:18:55;15.80;;;5.65;;
76617;SDS011;65509;42.816;74.648;2023-01-06T01:21:21;19.38;;;5.47;;
76617;SDS011;65509;42.816;74.648;2023-01-06T01:23:46;15.80;;;4.85;;
76617;SDS011;65509;42.816;74.648;2023-01-06T01:26:12;20.38;;;6.97;;
76617;SDS011;65509;42.816;74.648;2023-01-06T01:28:37;18.00;;;6.18;;
76617;SDS011;65509;42.816;74.648;2023-01-06T01:31:03;15.20;;;6.18;;
76617;SDS011;65509;42.816;74.648;2023-01-06T01:33:29;23.73;;;6.32;;
76617;SDS011;65509;42.816;74.648;2023-01-06T01:35:54;16.63;;;6.05;;
76617;SDS011;65509;42.816;74.648;2023-01-06T01:38:20;15.40;;;5.07;;
76617;SDS011;65509;42.816;74.648;2023-01-06T01:40:48;18.42;;;6.60;;
76617;SDS011;65509;42.816;74.648;2023-01-06T01:43:14;16.45;;;6.05;;
76617;SDS011;65509;42.816;74.648;2023-01-06T01:45:40;15.27;;;5.97;;
76617;SDS011;65509;42.816;74.648;2023-01-06T01:48:12;18.25;;;7.28;;
76617;SDS011;65509;42.816;74.648;2023-01-06T01:50:44;15.60;;;5.90;;
76617;SDS011;65509;42.816;74.648;2023-01-06T01:53:12;18.55;;;7.47;;
76617;SDS011;65509;42.816;74.648;2023-01-06T01:55:39;17.45;;;6.45;;
76617;SDS011;65509;42.816;74.648;2023-01-06T02:00:30;21.90;;;5.95;;
76617;SDS011;65509;42.816;74.648;2023-01-06T02:02:56;11.00;;;4.03;;
76617;SDS011;65509;42.816;74.648;2023-01-06T02:05:23;13.23;;;3.28;;
76617;SDS011;65509;42.816;74.648;2023-01-06T02:07:48;10.20;;;3.17;;
76617;SDS011;65509;42.816;74.648;2023-01-06T02:10:15;16.65;;;5.40;;
76617;SDS011;65509;42.816;74.648;2023-01-06T02:12:41;17.98;;;6.35;;
76617;SDS011;65509;42.816;74.648;2023-01-06T02:15:14;21.55;;;7.75;;
76617;SDS011;65509;42.816;74.648;2023-01-06T02:25:24;27.15;;;10.98;;
76617;SDS011;65509;42.816;74.648;2023-01-06T02:33:04;15.32;;;5.93;;
76617;SDS011;65509;42.816;74.648;2023-01-06T02:38:16;32.67;;;13.48;;
76617;SDS011;65509;42.816;74.648;2023-01-06T02:40:49;34.00;;;15.43;;
76617;SDS011;65509;42.816;74.648;2023-01-06T02:46:10;26.00;;;10.40;;
76617;SDS011;65509;42.816;74.648;2023-01-06T02:56:05;14.93;;;5.68;;
76617;SDS011;65509;42.816;74.648;2023-01-06T02:58:52;24.48;;;7.97;;
76617;SDS011;65509;42.816;74.648;2023-01-06T03:01:27;25.90;;;9.82;;
76617;SDS011;65509;42.816;74.648;2023-01-06T03:04:17;27.48;;;10.40;;
76617;SDS011;65509;42.816;74.648;2023-01-06T03:06:46;30.45;;;11.60;;
76617;SDS011;65509;42.816;74.648;2023-01-06T03:09:16;24.40;;;10.57;;
76617;SDS011;65509;42.816;74.648;2023-01-06T03:11:42;38.97;;;12.38;;
76617;SDS011;65509;42.816;74.648;2023-01-06T03:16:36;51.40;;;20.88;;
76617;SDS011;65509;42.816;74.648;2023-01-06T03:19:02;50.65;;;22.15;;
76617;SDS011;65509;42.816;74.648;2023-01-06T03:21:29;45.80;;;18.48;;
76617;SDS011;65509;42.816;74.648;2023-01-06T03:23:56;44.17;;;16.83;;
76617;SDS011;65509;42.816;74.648;2023-01-06T03:26:22;35.35;;;13.80;;
76617;SDS011;65509;42.816;74.648;2023-01-06T03:28:48;28.50;;;11.80;;
76617;SDS011;65509;42.816;74.648;2023-01-06T03:39:24;43.55;;;15.52;;
76617;SDS011;65509;42.816;74.648;2023-01-06T03:42:01;53.83;;;21.00;;
76617;SDS011;65509;42.816;74.648;2023-01-06T03:44:47;45.90;;;18.80;;
76617;SDS011;65509;42.816;74.648;2023-01-06T03:49:52;40.30;;;17.58;;
76617;SDS011;65509;42.816;74.648;2023-01-06T03:55:19;30.80;;;12.40;;
76617;SDS011;65509;42.816;74.648;2023-01-06T03:57:37;36.90;;;11.00;;
76617;SDS011;65509;42.816;74.648;2023-01-06T04:00:08;25.55;;;9.15;;
76617;SDS011;65509;42.816;74.648;2023-01-06T04:02:37;40.33;;;11.68;;
76617;SDS011;65509;42.816;74.648;2023-01-06T04:05:09;31.60;;;11.70;;
76617;SDS011;65509;42.816;74.648;2023-01-06T04:10:28;31.02;;;12.50;;
76617;SDS011;65509;42.816;74.648;2023-01-06T04:12:54;53.90;;;20.10;;
76617;SDS011;65509;42.816;74.648;2023-01-06T04:15:20;27.10;;;11.07;;
76617;SDS011;65509;42.816;74.648;2023-01-06T04:17:46;30.33;;;10.93;;
76617;SDS011;65509;42.816;74.648;2023-01-06T04:20:19;22.90;;;10.07;;
76617;SDS011;65509;42.816;74.648;2023-01-06T04:22:45;27.35;;;9.65;;
76617;SDS011;65509;42.816;74.648;2023-01-06T04:25:11;13.77;;;5.85;;
76617;SDS011;65509;42.816;74.648;2023-01-06T04:27:36;22.52;;;7.30;;
76617;SDS011;65509;42.816;74.648;2023-01-06T04:30:02;26.42;;;11.68;;
76617;SDS011;65509;42.816;74.648;2023-01-06T04:32:28;19.10;;;7.57;;
76617;SDS011;65509;42.816;74.648;2023-01-06T04:34:53;17.00;;;7.18;;
76617;SDS011;65509;42.816;74.648;2023-01-06T04:37:19;16.98;;;6.30;;
76617;SDS011;65509;42.816;74.648;2023-01-06T04:39:44;23.30;;;7.53;;
76617;SDS011;65509;42.816;74.648;2023-01-06T04:42:10;18.50;;;7.50;;
76617;SDS011;65509;42.816;74.648;2023-01-06T04:44:36;24.17;;;7.20;;
76617;SDS011;65509;42.816;74.648;2023-01-06T04:47:01;17.45;;;6.25;;
76617;SDS011;65509;42.816;74.648;2023-01-06T04:49:27;18.02;;;7.57;;
76617;SDS011;65509;42.816;74.648;2023-01-06T04:51:52;24.38;;;6.78;;
76617;SDS011;65509;42.816;74.648;2023-01-06T04:54:18;16.55;;;5.97;;
76617;SDS011;65509;42.816;74.648;2023-01-06T04:56:43;25.02;;;7.20;;
76617;SDS011;65509;42.816;74.648;2023-01-06T04:59:08;17.88;;;6.13;;
76617;SDS011;65509;42.816;74.648;2023-01-06T05:01:34;21.35;;;6.68;;
76617;SDS011;65509;42.816;74.648;2023-01-06T05:04:00;16.55;;;6.30;;
76617;SDS011;65509;42.816;74.648;2023-01-06T05:06:26;18.35;;;6.63;;
76617;SDS011;65509;42.816;74.648;2023-01-06T05:08:52;17.13;;;5.97;;
76617;SDS011;65509;42.816;74.648;2023-01-06T05:11:19;13.82;;;5.25;;
76617;SDS011;65509;42.816;74.648;2023-01-06T05:13:44;26.13;;;6.82;;
76617;SDS011;65509;42.816;74.648;2023-01-06T05:16:11;16.75;;;5.65;;
76617;SDS011;65509;42.816;74.648;2023-01-06T05:18:38;22.15;;;6.70;;
76617;SDS011;65509;42.816;74.648;2023-01-06T05:21:04;34.28;;;9.98;;
76617;SDS011;65509;42.816;74.648;2023-01-06T05:23:30;27.42;;;7.50;;
76617;SDS011;65509;42.816;74.648;2023-01-06T05:25:55;20.90;;;7.05;;
76617;SDS011;65509;42.816;74.648;2023-01-06T05:28:21;22.48;;;5.95;;
76617;SDS011;65509;42.816;74.648;2023-01-06T05:30:46;25.48;;;7.53;;
76617;SDS011;65509;42.816;74.648;2023-01-06T05:33:12;31.63;;;11.68;;
76617;SDS011;65509;42.816;74.648;2023-01-06T05:35:37;23.30;;;8.07;;
76617;SDS011;65509;42.816;74.648;2023-01-06T05:38:03;20.55;;;7.25;;
76617;SDS011;65509;42.816;74.648;2023-01-06T05:40:28;19.73;;;7.45;;
76617;SDS011;65509;42.816;74.648;2023-01-06T05:42:54;31.80;;;8.55;;
76617;SDS011;65509;42.816;74.648;2023-01-06T05:45:20;21.95;;;7.25;;
76617;SDS011;65509;42.816;74.648;2023-01-06T05:47:46;21.63;;;7.32;;
76617;SDS011;65509;42.816;74.648;2023-01-06T05:50:12;28.65;;;8.93;;
76617;SDS011;65509;42.816;74.648;2023-01-06T05:52:37;28.90;;;9.60;;
76617;SDS011;65509;42.816;74.648;2023-01-06T05:55:03;20.90;;;8.60;;
76617;SDS011;65509;42.816;74.648;2023-01-06T05:57:31;23.55;;;9.07;;
76617;SDS011;65509;42.816;74.648;2023-01-06T05:59:56;24.08;;;8.52;;
76617;SDS011;65509;42.816;74.648;2023-01-06T06:02:21;22.60;;;9.45;;
76617;SDS011;65509;42.816;74.648;2023-01-06T06:04:47;32.17;;;10.57;;
76617;SDS011;65509;42.816;74.648;2023-01-06T06:07:12;27.55;;;11.35;;
76617;SDS011;65509;42.816;74.648;2023-01-06T06:09:38;33.70;;;12.50;;
76617;SDS011;65509;42.816;74.648;2023-01-06T06:12:03;32.75;;;13.90;;
76617;SDS011;65509;42.816;74.648;2023-01-06T06:14:29;37.38;;;13.57;;
76617;SDS011;65509;42.816;74.648;2023-01-06T06:16:54;30.95;;;14.43;;
76617;SDS011;65509;42.816;74.648;2023-01-06T06:19:20;42.08;;;18.98;;
76617;SDS011;65509;42.816;74.648;2023-01-06T06:21:45;45.97;;;16.73;;
76617;SDS011;65509;42.816;74.648;2023-01-06T06:24:11;41.95;;;19.30;;
76617;SDS011;65509;42.816;74.648;2023-01-06T06:26:36;71.60;;;31.50;;
76617;SDS011;65509;42.816;74.648;2023-01-06T06:29:03;39.10;;;17.58;;
76617;SDS011;65509;42.816;74.648;2023-01-06T06:31:29;50.05;;;21.77;;
76617;SDS011;65509;42.816;74.648;2023-01-06T06:33:55;46.22;;;20.48;;
76617;SDS011;65509;42.816;74.648;2023-01-06T06:36:21;44.80;;;20.45;;
76617;SDS011;65509;42.816;74.648;2023-01-06T06:38:47;47.85;;;20.52;;
76617;SDS011;65509;42.816;74.648;2023-01-06T06:41:14;41.55;;;18.30;;
76617;SDS011;65509;42.816;74.648;2023-01-06T06:43:40;50.97;;;19.92;;
76617;SDS011;65509;42.816;74.648;2023-01-06T06:46:05;45.08;;;21.00;;
76617;SDS011;65509;42.816;74.648;2023-01-06T06:48:31;48.00;;;21.42;;
76617;SDS011;65509;42.816;74.648;2023-01-06T06:51:30;57.92;;;27.60;;
76617;SDS011;65509;42.816;74.648;2023-01-06T06:53:49;68.80;;;31.30;;
76617;SDS011;65509;42.816;74.648;2023-01-06T06:56:15;75.18;;;31.73;;
76617;SDS011;65509;42.816;74.648;2023-01-06T06:58:41;76.80;;;34.33;;
76617;SDS011;65509;42.816;74.648;2023-01-06T07:01:07;66.28;;;30.15;;
76617;SDS011;65509;42.816;74.648;2023-01-06T07:03:33;51.08;;;23.73;;
76617;SDS011;65509;42.816;74.648;2023-01-06T07:05:58;50.60;;;22.20;;
76617;SDS011;65509;42.816;74.648;2023-01-06T07:08:24;57.40;;;24.85;;
76617;SDS011;65509;42.816;74.648;2023-01-06T07:10:50;54.70;;;22.70;;
76617;SDS011;65509;42.816;74.648;2023-01-06T07:13:16;55.30;;;22.38;;
76617;SDS011;65509;42.816;74.648;2023-01-06T07:15:41;56.25;;;22.67;;
76617;SDS011;65509;42.816;74.648;2023-01-06T07:18:06;46.33;;;19.75;;
76617;SDS011;65509;42.816;74.648;2023-01-06T07:20:33;43.85;;;19.95;;
76617;SDS011;65509;42.816;74.648;2023-01-06T07:22:59;49.90;;;20.60;;
76617;SDS011;65509;42.816;74.648;2023-01-06T07:25:24;38.10;;;14.38;;
76617;SDS011;65509;42.816;74.648;2023-01-06T07:27:53;60.45;;;18.10;;
76617;SDS011;65509;42.816;74.648;2023-01-06T07:30:19;47.75;;;14.60;;
76617;SDS011;65509;42.816;74.648;2023-01-06T07:32:45;41.75;;;14.50;;
76617;SDS011;65509;42.816;74.648;2023-01-06T07:35:10;36.92;;;12.05;;
76617;SDS011;65509;42.816;74.648;2023-01-06T07:37:36;37.92;;;9.43;;
76617;SDS011;65509;42.816;74.648;2023-01-06T07:40:01;40.60;;;12.95;;
76617;SDS011;65509;42.816;74.648;2023-01-06T07:42:27;35.58;;;10.18;;
76617;SDS011;65509;42.816;74.648;2023-01-06T07:44:52;41.13;;;12.98;;
76617;SDS011;65509;42.816;74.648;2023-01-06T07:47:18;40.83;;;14.82;;
76617;SDS011;65509;42.816;74.648;2023-01-06T07:49:43;45.28;;;15.45;;
76617;SDS011;65509;42.816;74.648;2023-01-06T07:52:09;53.55;;;13.43;;
76617;SDS011;65509;42.816;74.648;2023-01-06T07:54:34;38.70;;;12.23;;
76617;SDS011;65509;42.816;74.648;2023-01-06T07:56:59;49.05;;;13.55;;
76617;SDS011;65509;42.816;74.648;2023-01-06T07:59:25;44.72;;;12.10;;
76617;SDS011;65509;42.816;74.648;2023-01-06T08:01:50;64.10;;;17.42;;
76617;SDS011;65509;42.816;74.648;2023-01-06T08:04:16;57.22;;;16.65;;
76617;SDS011;65509;42.816;74.648;2023-01-06T08:06:41;48.45;;;13.93;;
76617;SDS011;65509;42.816;74.648;2023-01-06T08:09:07;36.58;;;12.60;;
76617;SDS011;65509;42.816;74.648;2023-01-06T08:11:32;62.42;;;16.52;;
76617;SDS011;65509;42.816;74.648;2023-01-06T08:13:58;46.50;;;12.73;;
76617;SDS011;65509;42.816;74.648;2023-01-06T08:16:23;48.58;;;13.35;;
76617;SDS011;65509;42.816;74.648;2023-01-06T08:18:49;51.53;;;13.38;;
76617;SDS011;65509;42.816;74.648;2023-01-06T08:21:15;47.85;;;14.50;;
76617;SDS011;65509;42.816;74.648;2023-01-06T08:23:40;46.42;;;13.75;;
76617;SDS011;65509;42.816;74.648;2023-01-06T08:26:15;57.30;;;13.60;;
76617;SDS011;65509;42.816;74.648;2023-01-06T08:28:42;48.13;;;13.15;;
76617;SDS011;65509;42.816;74.648;2023-01-06T08:31:08;46.10;;;10.55;;
76617;SDS011;65509;42.816;74.648;2023-01-06T08:33:34;49.90;;;11.35;;
76617;SDS011;65509;42.816;74.648;2023-01-06T08:36:00;47.13;;;9.73;;
76617;SDS011;65509;42.816;74.648;2023-01-06T08:38:26;48.80;;;9.30;;
76617;SDS011;65509;42.816;74.648;2023-01-06T08:40:52;47.42;;;10.00;;
76617;SDS011;65509;42.816;74.648;2023-01-06T08:43:18;34.78;;;6.60;;
76617;SDS011;65509;42.816;74.648;2023-01-06T08:45:43;31.45;;;5.72;;
76617;SDS011;65509;42.816;74.648;2023-01-06T08:48:09;38.58;;;7.05;;
76617;SDS011;65509;42.816;74.648;2023-01-06T08:50:34;25.02;;;5.35;;
76617;SDS011;65509;42.816;74.648;2023-01-06T08:53:01;42.13;;;5.35;;
76617;SDS011;65509;42.816;74.648;2023-01-06T08:55:27;31.13;;;4.45;;
76617;SDS011;65509;42.816;74.648;2023-01-06T08:57:52;30.65;;;5.57;;
76617;SDS011;65509;42.816;74.648;2023-01-06T09:00:18;34.35;;;4.68;;
76617;SDS011;65509;42.816;74.648;2023-01-06T09:02:43;38.20;;;5.22;;
76617;SDS011;65509;42.816;74.648;2023-01-06T09:05:09;33.42;;;4.63;;
76617;SDS011;65509;42.816;74.648;2023-01-06T09:07:34;31.60;;;5.32;;
76617;SDS011;65509;42.816;74.648;2023-01-06T09:10:00;37.83;;;5.45;;
76617;SDS011;65509;42.816;74.648;2023-01-06T09:12:25;23.48;;;4.18;;
76617;SDS011;65509;42.816;74.648;2023-01-06T09:14:51;39.90;;;6.07;;
76617;SDS011;65509;42.816;74.648;2023-01-06T09:17:16;20.90;;;3.90;;
76617;SDS011;65509;42.816;74.648;2023-01-06T09:19:42;33.85;;;4.85;;
76617;SDS011;65509;42.816;74.648;2023-01-06T09:22:07;36.45;;;5.57;;
76617;SDS011;65509;42.816;74.648;2023-01-06T09:24:33;41.47;;;5.68;;
76617;SDS011;65509;42.816;74.648;2023-01-06T09:27:01;38.45;;;5.72;;
76617;SDS011;65509;42.816;74.648;2023-01-06T09:29:27;29.27;;;5.82;;
76617;SDS011;65509;42.816;74.648;2023-01-06T09:31:52;39.38;;;5.82;;
76617;SDS011;65509;42.816;74.648;2023-01-06T09:34:18;30.17;;;5.15;;
76617;SDS011;65509;42.816;74.648;2023-01-06T09:36:43;28.40;;;5.63;;
76617;SDS011;65509;42.816;74.648;2023-01-06T09:39:09;37.15;;;6.05;;
76617;SDS011;65509;42.816;74.648;2023-01-06T09:44:19;38.58;;;5.78;;
76617;SDS011;65509;42.816;74.648;2023-01-06T09:46:47;22.30;;;5.18;;
76617;SDS011;65509;42.816;74.648;2023-01-06T09:49:28;27.67;;;4.97;;
76617;SDS011;65509;42.816;74.648;2023-01-06T09:51:55;35.13;;;5.45;;
76617;SDS011;65509;42.816;74.648;2023-01-06T09:54:27;35.75;;;6.30;;
76617;SDS011;65509;42.816;74.648;2023-01-06T09:57:29;32.78;;;5.80;;
76617;SDS011;65509;42.816;74.648;2023-01-06T09:59:54;37.67;;;5.05;;
76617;SDS011;65509;42.816;74.648;2023-01-06T10:02:32;23.55;;;4.93;;
76617;SDS011;65509;42.816;74.648;2023-01-06T10:05:00;38.35;;;5.80;;
76617;SDS011;65509;42.816;74.648;2023-01-06T10:25:19;36.72;;;8.23;;
76617;SDS011;65509;42.816;74.648;2023-01-06T10:27:49;41.65;;;7.75;;
76617;SDS011;65509;42.816;74.648;2023-01-06T10:30:26;45.75;;;10.70;;
76617;SDS011;65509;42.816;74.648;2023-01-06T10:32:53;47.53;;;12.20;;
76617;SDS011;65509;42.816;74.648;2023-01-06T10:35:19;46.85;;;9.00;;
76617;SDS011;65509;42.816;74.648;2023-01-06T10:37:46;33.45;;;7.57;;
76617;SDS011;65509;42.816;74.648;2023-01-06T10:40:19;41.25;;;9.25;;
76617;SDS011;65509;42.816;74.648;2023-01-06T10:42:52;44.97;;;9.15;;
76617;SDS011;65509;42.816;74.648;2023-01-06T10:47:50;29.05;;;7.93;;
76617;SDS011;65509;42.816;74.648;2023-01-06T10:50:16;48.95;;;12.75;;
76617;SDS011;65509;42.816;74.648;2023-01-06T10:52:43;47.28;;;10.82;;
76617;SDS011;65509;42.816;74.648;2023-01-06T10:55:14;48.78;;;11.82;;
76617;SDS011;65509;42.816;74.648;2023-01-06T10:57:43;52.47;;;13.35;;
76617;SDS011;65509;42.816;74.648;2023-01-06T11:00:13;43.42;;;11.30;;
76617;SDS011;65509;42.816;74.648;2023-01-06T11:02:48;69.63;;;15.80;;
76617;SDS011;65509;42.816;74.648;2023-01-06T11:05:15;47.13;;;12.20;;
76617;SDS011;65509;42.816;74.648;2023-01-06T11:07:47;52.13;;;14.07;;
76617;SDS011;65509;42.816;74.648;2023-01-06T11:10:20;48.28;;;10.73;;
76617;SDS011;65509;42.816;74.648;2023-01-06T11:12:47;49.28;;;8.15;;
76617;SDS011;65509;42.816;74.648;2023-01-06T11:15:15;51.65;;;14.57;;
76617;SDS011;65509;42.816;74.648;2023-01-06T11:17:45;63.97;;;16.88;;
76617;SDS011;65509;42.816;74.648;2023-01-06T11:22:42;64.60;;;19.50;;
76617;SDS011;65509;42.816;74.648;2023-01-06T11:25:21;38.08;;;8.98;;
76617;SDS011;65509;42.816;74.648;2023-01-06T11:28:14;54.95;;;13.18;;
76617;SDS011;65509;42.816;74.648;2023-01-06T11:30:51;39.95;;;9.77;;
76617;SDS011;65509;42.816;74.648;2023-01-06T11:33:21;46.33;;;10.00;;
76617;SDS011;65509;42.816;74.648;2023-01-06T11:35:47;53.60;;;15.27;;
76617;SDS011;65509;42.816;74.648;2023-01-06T11:38:14;49.60;;;10.95;;
76617;SDS011;65509;42.816;74.648;2023-01-06T11:40:40;92.28;;;27.60;;
76617;SDS011;65509;42.816;74.648;2023-01-06T11:43:28;62.38;;;15.05;;
76617;SDS011;65509;42.816;74.648;2023-01-06T11:45:57;93.15;;;27.35;;
76617;SDS011;65509;42.816;74.648;2023-01-06T11:48:27;192.00;;;75.95;;
76617;SDS011;65509;42.816;74.648;2023-01-06T11:50:55;81.32;;;26.38;;
76617;SDS011;65509;42.816;74.648;2023-01-06T11:53:21;57.80;;;17.85;;
76617;SDS011;65509;42.816;74.648;2023-01-06T11:55:59;65.15;;;19.77;;
76617;SDS011;65509;42.816;74.648;2023-01-06T12:03:37;70.57;;;22.13;;
76617;SDS011;65509;42.816;74.648;2023-01-06T12:08:54;75.28;;;20.75;;
76617;SDS011;65509;42.816;74.648;2023-01-06T12:11:38;72.80;;;21.80;;
76617;SDS011;65509;42.816;74.648;2023-01-06T12:14:16;120.18;;;31.75;;
76617;SDS011;65509;42.816;74.648;2023-01-06T12:17:04;69.38;;;19.67;;
76617;SDS011;65509;42.816;74.648;2023-01-06T12:21:57;61.45;;;18.67;;
76617;SDS011;65509;42.816;74.648;2023-01-06T12:24:23;61.63;;;15.85;;
76617;SDS011;65509;42.816;74.648;2023-01-06T12:26:50;67.00;;;15.65;;
76617;SDS011;65509;42.816;74.648;2023-01-06T12:29:16;58.00;;;17.05;;
76617;SDS011;65509;42.816;74.648;2023-01-06T12:36:59;67.97;;;17.92;;
76617;SDS011;65509;42.816;74.648;2023-01-06T12:41:52;89.65;;;20.83;;
76617;SDS011;65509;42.816;74.648;2023-01-06T12:44:28;85.65;;;21.95;;
76617;SDS011;65509;42.816;74.648;2023-01-06T12:47:06;121.15;;;33.70;;
76617;SDS011;65509;42.816;74.648;2023-01-06T12:49:44;86.72;;;21.70;;
76617;SDS011;65509;42.816;74.648;2023-01-06T12:52:14;86.35;;;25.45;;
76617;SDS011;65509;42.816;74.648;2023-01-06T12:54:42;84.25;;;29.90;;
76617;SDS011;65509;42.816;74.648;2023-01-06T13:04:56;146.38;;;66.15;;
76617;SDS011;65509;42.816;74.648;2023-01-06T13:10:04;82.38;;;25.77;;
76617;SDS011;65509;42.816;74.648;2023-01-06T13:17:52;76.05;;;24.67;;
76617;SDS011;65509;42.816;74.648;2023-01-06T13:20:22;51.58;;;19.35;;
76617;SDS011;65509;42.816;74.648;2023-01-06T13:25:33;103.68;;;33.47;;
76617;SDS011;65509;42.816;74.648;2023-01-06T13:28:07;83.43;;;27.13;;
76617;SDS011;65509;42.816;74.648;2023-01-06T13:30:47;72.68;;;24.30;;
76617;SDS011;65509;42.816;74.648;2023-01-06T13:40:52;76.13;;;28.27;;
76617;SDS011;65509;42.816;74.648;2023-01-06T13:43:31;82.75;;;29.40;;
76617;SDS011;65509;42.816;74.648;2023-01-06T13:46:01;72.60;;;24.45;;
76617;SDS011;65509;42.816;74.648;2023-01-06T13:48:29;69.55;;;24.73;;
76617;SDS011;65509;42.816;74.648;2023-01-06T13:50:57;84.43;;;27.27;;
76617;SDS011;65509;42.816;74.648;2023-01-06T13:53:23;75.88;;;27.80;;
76617;SDS011;65509;42.816;74.648;2023-01-06T13:56:20;64.57;;;23.95;;
76617;SDS011;65509;42.816;74.648;2023-01-06T13:58:34;68.30;;;22.27;;
76617;SDS011;65509;42.816;74.648;2023-01-06T14:01:42;63.95;;;22.25;;
76617;SDS011;65509;42.816;74.648;2023-01-06T14:03:51;73.55;;;21.95;;
76617;SDS011;65509;42.816;74.648;2023-01-06T14:08:55;53.13;;;16.92;;
76617;SDS011;65509;42.816;74.648;2023-01-06T14:11:37;52.45;;;18.85;;
76617;SDS011;65509;42.816;74.648;2023-01-06T14:14:06;62.80;;;18.58;;
76617;SDS011;65509;42.816;74.648;2023-01-06T14:16:48;65.82;;;20.63;;
76617;SDS011;65509;42.816;74.648;2023-01-06T14:19:17;57.10;;;21.08;;
76617;SDS011;65509;42.816;74.648;2023-01-06T14:21:44;57.22;;;19.38;;
76617;SDS011;65509;42.816;74.648;2023-01-06T14:31:53;120.90;;;46.20;;
76617;SDS011;65509;42.816;74.648;2023-01-06T14:34:18;116.88;;;39.40;;
76617;SDS011;65509;42.816;74.648;2023-01-06T14:36:46;115.30;;;37.47;;
76617;SDS011;65509;42.816;74.648;2023-01-06T14:39:17;134.20;;;42.92;;
76617;SDS011;65509;42.816;74.648;2023-01-06T14:41:48;134.43;;;47.70;;
76617;SDS011;65509;42.816;74.648;2023-01-06T14:44:17;133.98;;;50.35;;
76617;SDS011;65509;42.816;74.648;2023-01-06T14:46:48;151.10;;;57.22;;
76617;SDS011;65509;42.816;74.648;2023-01-06T14:49:19;142.30;;;55.00;;
76617;SDS011;65509;42.816;74.648;2023-01-06T14:51:46;148.98;;;52.80;;
76617;SDS011;65509;42.816;74.648;2023-01-06T14:54:23;178.88;;;73.15;;
76617;SDS011;65509;42.816;74.648;2023-01-06T14:56:56;162.77;;;67.70;;
76617;SDS011;65509;42.816;74.648;2023-01-06T14:59:23;251.13;;;103.90;;
76617;SDS011;65509;42.816;74.648;2023-01-06T15:01:59;215.82;;;89.95;;
76617;SDS011;65509;42.816;74.648;2023-01-06T15:04:29;138.57;;;57.38;;
76617;SDS011;65509;42.816;74.648;2023-01-06T15:06:56;138.90;;;48.42;;
76617;SDS011;65509;42.816;74.648;2023-01-06T15:09:21;112.53;;;40.60;;
76617;SDS011;65509;42.816;74.648;2023-01-06T15:11:47;106.57;;;36.00;;
76617;SDS011;65509;42.816;74.648;2023-01-06T15:14:33;112.47;;;38.00;;
76617;SDS011;65509;42.816;74.648;2023-01-06T15:17:00;125.47;;;39.20;;
76617;SDS011;65509;42.816;74.648;2023-01-06T15:19:25;109.50;;;37.50;;
76617;SDS011;65509;42.816;74.648;2023-01-06T15:21:52;122.10;;;40.20;;
76617;SDS011;65509;42.816;74.648;2023-01-06T15:24:22;120.68;;;39.38;;
76617;SDS011;65509;42.816;74.648;2023-01-06T15:27:11;146.43;;;48.08;;
76617;SDS011;65509;42.816;74.648;2023-01-06T15:29:37;126.43;;;44.65;;
76617;SDS011;65509;42.816;74.648;2023-01-06T15:32:03;120.72;;;43.13;;
76617;SDS011;65509;42.816;74.648;2023-01-06T15:37:11;127.65;;;45.13;;
76617;SDS011;65509;42.816;74.648;2023-01-06T15:39:39;122.25;;;41.85;;
76617;SDS011;65509;42.816;74.648;2023-01-06T15:42:09;98.97;;;36.38;;
76617;SDS011;65509;42.816;74.648;2023-01-06T15:44:37;82.60;;;30.85;;
76617;SDS011;65509;42.816;74.648;2023-01-06T15:47:07;86.55;;;26.95;;
76617;SDS011;65509;42.816;74.648;2023-01-06T15:49:57;75.13;;;24.52;;
76617;SDS011;65509;42.816;74.648;2023-01-06T15:52:43;89.22;;;30.27;;
76617;SDS011;65509;42.816;74.648;2023-01-06T15:55:20;94.20;;;34.42;;
76617;SDS011;65509;42.816;74.648;2023-01-06T15:57:49;82.80;;;32.65;;
76617;SDS011;65509;42.816;74.648;2023-01-06T16:00:23;71.47;;;26.88;;
76617;SDS011;65509;42.816;74.648;2023-01-06T16:02:49;66.53;;;22.80;;
76617;SDS011;65509;42.816;74.648;2023-01-06T16:05:31;68.30;;;22.52;;
76617;SDS011;65509;42.816;74.648;2023-01-06T16:08:00;80.38;;;25.50;;
76617;SDS011;65509;42.816;74.648;2023-01-06T16:10:44;78.80;;;26.77;;
76617;SDS011;65509;42.816;74.648;2023-01-06T16:13:21;114.13;;;32.22;;
76617;SDS011;65509;42.816;74.648;2023-01-06T16:16:34;112.20;;;35.15;;
76617;SDS011;65509;42.816;74.648;2023-01-06T16:18:35;116.22;;;34.63;;
76617;SDS011;65509;42.816;74.648;2023-01-06T16:21:14;115.13;;;32.35;;
76617;SDS011;65509;42.816;74.648;2023-01-06T16:23:40;86.75;;;25.55;;
76617;SDS011;65509;42.816;74.648;2023-01-06T16:26:07;96.30;;;29.27;;
76617;SDS011;65509;42.816;74.648;2023-01-06T16:28:33;205.63;;;51.22;;
76617;SDS011;65509;42.816;74.648;2023-01-06T16:31:07;176.57;;;49.50;;